Time;durP1;ratioP1;P1;durP2;ratioP2;P2;SDS_P1;SDS_P2;PMS_P1;PMS_P2;Temp;Humidity;BMP_temperature;BMP_pressure;BME280_temperature;BME280_humidity;BME280_pressure;Samples;Min_cycle;Max_cycle;Signal;HPM_P1;HPM_P2
2023/07/13 00:01:35;;;;;;;;;;;22.20;99.90;;;;;;5005893;28;19930;-79
2023/07/13 00:04:01;;;;;;;;;;;22.20;99.90;;;;;;5007828;28;19936;-78
2023/07/13 00:06:30;;;;;;;;;;;22.20;99.90;;;;;;4990450;28;19936;-70
2023/07/13 00:08:55;;;;;;;;;;;22.20;99.90;;;;;;5006365;28;20068;-70
2023/07/13 00:11:21;;;;;;;;;;;22.30;99.90;;;;;;4981922;28;19958;-70
2023/07/13 00:13:46;;;;;;;;;;;22.20;99.90;;;;;;5000791;28;19932;-70
2023/07/13 00:16:13;;;;;;;;;;;22.20;99.90;;;;;;4997469;28;20001;-71
2023/07/13 00:18:39;;;;;;;;;;;22.30;99.90;;;;;;5002706;28;19931;-70
2023/07/13 00:21:05;;;;;;;;;;;22.30;99.90;;;;;;5003656;28;19939;-71
2023/07/13 00:23:33;;;;;;;;;;;22.20;99.90;;;;;;4995292;28;19960;-70
2023/07/13 00:25:59;;;;;;;;;;;22.20;99.90;;;;;;5000702;28;19965;-71
2023/07/13 00:28:25;;;;;;;;;;;22.10;99.90;;;;;;5007736;28;19930;-71
2023/07/13 00:30:50;;;;;;;;;;;22.00;99.90;;;;;;5007175;28;19932;-71
2023/07/13 00:33:16;;;;;;;;;;;22.00;99.90;;;;;;5005394;28;20508;-71
2023/07/13 00:35:43;;;;;;;;;;;21.90;99.90;;;;;;5003166;28;19938;-71
2023/07/13 00:38:09;;;;;;;;;;;21.80;99.90;;;;;;4989042;28;19944;-70
2023/07/13 00:40:34;;;;;;;;;;;21.70;99.90;;;;;;4996679;28;20268;-70
2023/07/13 00:43:00;;;;;;;;;;;21.60;99.90;;;;;;4991716;28;19928;-71
2023/07/13 00:45:25;;;;;;;;;;;21.60;99.90;;;;;;4995942;28;19962;-77
2023/07/13 00:47:51;;;;;;;;;;;21.70;99.90;;;;;;4994308;28;19963;-76
2023/07/13 00:50:17;;;;;;;;;;;21.70;99.90;;;;;;4996376;28;19936;-77
2023/07/13 00:52:44;;;;;;;;;;;21.70;99.90;;;;;;4996313;28;19944;-77
2023/07/13 00:55:10;;;;;;;;;;;21.70;99.90;;;;;;4997317;28;19941;-77
2023/07/13 00:57:36;;;;;;;;;;;21.60;99.90;;;;;;4980514;28;19933;-76
2023/07/13 01:00:06;;;;;;;;;;;21.60;99.90;;;;;;4994317;28;19930;-76
2023/07/13 01:02:32;;;;;;;;;;;21.60;99.90;;;;;;4995066;28;19936;-70
2023/07/13 01:04:57;;;;;;;;;;;21.60;99.90;;;;;;4992111;28;20399;-70
2023/07/13 01:07:23;;;;;;;;;;;21.60;99.90;;;;;;4996220;28;19937;-69
2023/07/13 01:09:49;;;;;;;;;;;21.60;99.90;;;;;;4999772;28;20242;-70
2023/07/13 01:12:15;;;;;;;;;;;21.60;99.90;;;;;;4998473;28;19940;-70
2023/07/13 01:14:40;;;;;;;;;;;21.60;99.90;;;;;;4996785;28;19974;-70
2023/07/13 01:17:09;;;;;;;;;;;21.60;99.90;;;;;;4999125;28;19931;-70
2023/07/13 01:19:35;;;;;;;;;;;21.60;99.90;;;;;;4992152;28;20024;-76
2023/07/13 01:22:11;;;;;;;;;;;21.60;99.90;;;;;;4996224;28;20458;-70
2023/07/13 01:24:37;;;;;;;;;;;21.60;99.90;;;;;;4976773;28;20011;-70
2023/07/13 01:27:03;;;;;;;;;;;21.60;99.90;;;;;;4994922;28;19944;-70
2023/07/13 01:29:30;;;;;;;;;;;21.50;99.90;;;;;;4990029;28;19928;-70
2023/07/13 01:31:55;;;;;;;;;;;21.50;99.90;;;;;;4990473;28;20468;-70
2023/07/13 01:34:21;;;;;;;;;;;21.50;99.90;;;;;;4984359;28;19992;-69
2023/07/13 01:36:46;;;;;;;;;;;21.50;99.90;;;;;;4994067;28;19934;-70
2023/07/13 01:39:12;;;;;;;;;;;21.50;99.90;;;;;;4972447;28;20025;-76
2023/07/13 01:41:37;;;;;;;;;;;21.50;99.90;;;;;;4993973;28;19945;-76
2023/07/13 01:44:03;;;;;;;;;;;21.40;99.90;;;;;;4980413;28;19938;-76
2023/07/13 01:46:28;;;;;;;;;;;21.40;99.90;;;;;;4992534;28;20471;-76
2023/07/13 01:48:54;;;;;;;;;;;21.40;99.90;;;;;;4993945;28;19920;-77
2023/07/13 01:51:20;;;;;;;;;;;21.40;99.90;;;;;;4992281;28;20596;-76
2023/07/13 01:53:46;;;;;;;;;;;21.30;99.90;;;;;;4993884;28;19931;-76
2023/07/13 01:56:11;;;;;;;;;;;21.20;99.90;;;;;;4998759;28;19984;-75
2023/07/13 01:58:36;;;;;;;;;;;21.20;99.90;;;;;;4995439;28;19980;-76
2023/07/13 02:01:02;;;;;;;;;;;21.20;99.90;;;;;;4997024;28;19978;-76
2023/07/13 02:03:27;;;;;;;;;;;21.20;99.90;;;;;;4994478;28;19932;-76
2023/07/13 02:05:53;;;;;;;;;;;21.20;99.90;;;;;;4995662;28;19992;-76
2023/07/13 02:08:18;;;;;;;;;;;21.20;99.90;;;;;;4995487;28;19953;-76
2023/07/13 02:10:44;;;;;;;;;;;21.20;99.90;;;;;;4997995;28;19941;-76
2023/07/13 02:13:09;;;;;;;;;;;21.20;99.90;;;;;;4999645;28;19963;-76
2023/07/13 02:15:38;;;;;;;;;;;21.20;99.90;;;;;;4997619;28;19935;-76
2023/07/13 02:18:03;;;;;;;;;;;21.20;99.90;;;;;;4998788;28;19933;-76
2023/07/13 02:20:29;;;;;;;;;;;21.20;99.90;;;;;;4993986;28;19939;-76
2023/07/13 02:22:54;;;;;;;;;;;21.20;99.90;;;;;;4996286;28;20339;-76
2023/07/13 02:25:20;;;;;;;;;;;21.20;99.90;;;;;;4995045;28;20472;-76
2023/07/13 02:27:45;;;;;;;;;;;21.20;99.90;;;;;;5000855;28;19937;-75
2023/07/13 02:30:11;;;;;;;;;;;21.20;99.90;;;;;;4982370;28;19944;-76
2023/07/13 02:32:36;;;;;;;;;;;21.20;99.90;;;;;;4999114;28;20039;-76
2023/07/13 02:35:03;;;;;;;;;;;21.10;99.90;;;;;;4997946;28;20004;-70
2023/07/13 02:37:28;;;;;;;;;;;21.10;99.90;;;;;;5006559;28;19941;-70
2023/07/13 02:39:54;;;;;;;;;;;21.00;99.90;;;;;;4992098;28;20203;-70
2023/07/13 02:42:19;;;;;;;;;;;21.00;99.90;;;;;;5002210;28;19933;-70
2023/07/13 02:44:45;;;;;;;;;;;20.80;99.90;;;;;;5003044;28;20616;-70
2023/07/13 02:47:10;;;;;;;;;;;20.70;99.90;;;;;;5003733;28;19962;-70
2023/07/13 02:49:36;;;;;;;;;;;20.80;99.90;;;;;;4991718;28;19946;-69
2023/07/13 02:52:02;;;;;;;;;;;20.70;99.90;;;;;;4995505;28;19960;-70
2023/07/13 02:54:27;;;;;;;;;;;20.70;99.90;;;;;;4997146;28;20339;-69
2023/07/13 02:56:53;;;;;;;;;;;20.70;99.90;;;;;;5001166;28;19929;-70
2023/07/13 02:59:18;;;;;;;;;;;20.60;99.90;;;;;;5002777;28;19926;-70
2023/07/13 03:01:44;;;;;;;;;;;20.60;99.90;;;;;;5003230;28;19943;-70
2023/07/13 03:04:09;;;;;;;;;;;20.60;99.90;;;;;;5004589;28;21533;-70
2023/07/13 03:06:35;;;;;;;;;;;20.50;99.90;;;;;;5003013;28;19939;-70
2023/07/13 03:09:00;;;;;;;;;;;20.50;99.90;;;;;;4992163;28;20628;-75
2023/07/13 03:11:26;;;;;;;;;;;20.50;99.90;;;;;;5003706;28;20065;-70
2023/07/13 03:13:52;;;;;;;;;;;20.40;99.90;;;;;;4995719;28;20606;-70
2023/07/13 03:16:17;;;;;;;;;;;20.40;99.90;;;;;;4998330;28;20039;-69
2023/07/13 03:18:43;;;;;;;;;;;20.40;99.90;;;;;;5002758;28;19986;-70
2023/07/13 03:21:09;;;;;;;;;;;20.40;99.90;;;;;;5003428;28;19928;-70
2023/07/13 03:23:34;;;;;;;;;;;20.40;99.90;;;;;;5002754;28;19939;-70
2023/07/13 03:26:10;;;;;;;;;;;20.40;99.90;;;;;;4998977;28;20602;-70
2023/07/13 03:28:36;;;;;;;;;;;20.40;99.90;;;;;;4994958;28;19939;-76
2023/07/13 03:31:06;;;;;;;;;;;20.40;99.90;;;;;;4992990;28;19931;-76
2023/07/13 03:33:32;;;;;;;;;;;20.40;99.90;;;;;;4976572;28;20077;-76
2023/07/13 03:35:57;;;;;;;;;;;20.50;99.90;;;;;;4993470;28;21284;-76
2023/07/13 03:38:23;;;;;;;;;;;20.50;99.90;;;;;;4998549;28;19936;-76
2023/07/13 03:40:48;;;;;;;;;;;20.50;99.90;;;;;;4998766;28;20032;-76
2023/07/13 03:43:14;;;;;;;;;;;20.50;99.90;;;;;;4999143;28;19931;-76
2023/07/13 03:45:40;;;;;;;;;;;20.50;99.90;;;;;;5002032;28;19975;-76
2023/07/13 03:48:05;;;;;;;;;;;20.60;99.90;;;;;;4998923;28;19964;-76
2023/07/13 03:50:31;;;;;;;;;;;20.60;99.90;;;;;;4986890;28;19937;-76
2023/07/13 03:52:57;;;;;;;;;;;20.60;99.90;;;;;;5002844;28;20390;-75
2023/07/13 03:55:22;;;;;;;;;;;20.60;99.90;;;;;;4989928;28;20770;-76
2023/07/13 03:57:52;;;;;;;;;;;20.70;99.90;;;;;;4999811;28;20457;-77
2023/07/13 04:00:18;;;;;;;;;;;20.70;99.90;;;;;;5001290;28;20000;-75
2023/07/13 04:02:43;;;;;;;;;;;20.70;99.90;;;;;;4985508;28;20457;-76
2023/07/13 04:05:09;;;;;;;;;;;20.80;99.90;;;;;;5000457;28;19959;-76
2023/07/13 04:07:34;;;;;;;;;;;20.80;99.90;;;;;;5004345;28;19931;-70
2023/07/13 04:10:00;;;;;;;;;;;20.80;99.90;;;;;;4987422;28;19936;-70
2023/07/13 04:12:25;;;;;;;;;;;20.80;99.90;;;;;;5002824;28;20463;-70
2023/07/13 04:14:51;;;;;;;;;;;20.80;99.90;;;;;;5002950;28;19935;-69
2023/07/13 04:17:16;;;;;;;;;;;20.90;99.90;;;;;;5000795;28;20038;-70
2023/07/13 04:19:42;;;;;;;;;;;20.90;99.90;;;;;;4998105;28;19936;-70
2023/07/13 04:22:07;;;;;;;;;;;20.90;99.90;;;;;;4997919;28;20106;-70
2023/07/13 04:24:33;;;;;;;;;;;20.90;99.90;;;;;;4999773;28;20595;-76
2023/07/13 04:27:00;;;;;;;;;;;20.90;99.90;;;;;;4997283;28;19986;-76
2023/07/13 04:29:25;;;;;;;;;;;20.90;99.90;;;;;;5001079;28;19947;-76
2023/07/13 04:31:51;;;;;;;;;;;21.00;99.90;;;;;;5009300;28;19928;-76
2023/07/13 04:34:16;;;;;;;;;;;21.00;99.90;;;;;;5003768;28;20541;-76
2023/07/13 04:36:42;;;;;;;;;;;21.00;99.90;;;;;;5007200;28;19941;-76
2023/07/13 04:39:08;;;;;;;;;;;21.00;99.90;;;;;;5008633;28;20104;-76
2023/07/13 04:41:34;;;;;;;;;;;21.00;99.90;;;;;;5008492;28;19973;-76
2023/07/13 04:43:59;;;;;;;;;;;21.00;99.90;;;;;;5002371;28;20040;-76
2023/07/13 04:46:25;;;;;;;;;;;21.00;99.90;;;;;;5002366;28;19961;-77
2023/07/13 04:48:53;;;;;;;;;;;20.90;99.90;;;;;;4985471;28;19936;-76
2023/07/13 04:51:18;;;;;;;;;;;20.90;99.90;;;;;;5007070;28;19936;-77
2023/07/13 04:53:44;;;;;;;;;;;20.90;99.90;;;;;;5005375;28;19935;-76
2023/07/13 04:56:09;;;;;;;;;;;20.90;99.90;;;;;;5007504;28;19931;-77
2023/07/13 04:58:35;;;;;;;;;;;20.90;99.90;;;;;;5004236;28;19951;-79
2023/07/13 05:01:01;;;;;;;;;;;20.80;99.90;;;;;;5005475;28;19936;-70
2023/07/13 05:03:26;;;;;;;;;;;20.60;99.90;;;;;;5004419;28;20254;-71
2023/07/13 05:06:00;;;;;;;;;;;20.60;99.90;;;;;;5006350;28;19970;-71
2023/07/13 05:08:25;;;;;;;;;;;20.60;99.90;;;;;;5006157;28;19933;-71
2023/07/13 05:10:51;;;;;;;;;;;20.60;99.90;;;;;;5006628;28;20296;-71
2023/07/13 05:13:17;;;;;;;;;;;20.60;99.90;;;;;;5006382;28;20021;-70
2023/07/13 05:15:42;;;;;;;;;;;20.70;99.90;;;;;;5009775;28;19931;-71
2023/07/13 05:18:08;;;;;;;;;;;20.70;99.90;;;;;;5005112;28;19935;-70
2023/07/13 05:20:33;;;;;;;;;;;20.70;99.90;;;;;;4989406;28;20479;-71
2023/07/13 05:22:59;;;;;;;;;;;20.70;99.90;;;;;;5006875;28;19948;-70
2023/07/13 05:25:24;;;;;;;;;;;20.70;99.90;;;;;;5006357;28;20117;-70
2023/07/13 05:27:50;;;;;;;;;;;20.60;99.90;;;;;;4990305;28;19936;-71
2023/07/13 05:30:15;;;;;;;;;;;20.50;99.90;;;;;;5004099;28;19935;-70
2023/07/13 05:32:41;;;;;;;;;;;20.50;99.90;;;;;;4991660;28;19997;-71
2023/07/13 05:35:07;;;;;;;;;;;20.40;99.90;;;;;;5001759;28;19951;-70
2023/07/13 05:37:32;;;;;;;;;;;20.40;99.90;;;;;;5006208;28;20065;-71
2023/07/13 05:39:58;;;;;;;;;;;20.30;99.90;;;;;;5002841;28;20327;-71
2023/07/13 05:42:24;;;;;;;;;;;20.20;99.90;;;;;;5005230;28;19975;-71
2023/07/13 05:44:49;;;;;;;;;;;20.10;99.90;;;;;;5000738;28;20410;-73
2023/07/13 05:47:15;;;;;;;;;;;19.90;99.90;;;;;;5003670;28;19963;-74
2023/07/13 05:49:40;;;;;;;;;;;19.80;99.90;;;;;;5003061;28;20029;-72
2023/07/13 05:52:06;;;;;;;;;;;19.70;99.90;;;;;;5002772;28;20705;-70
2023/07/13 05:54:32;;;;;;;;;;;19.70;99.90;;;;;;5000389;28;19941;-75
2023/07/13 05:56:57;;;;;;;;;;;19.60;99.90;;;;;;5004026;28;19926;-70
2023/07/13 05:59:23;;;;;;;;;;;19.70;99.90;;;;;;5001695;28;19935;-70
2023/07/13 06:01:48;;;;;;;;;;;19.70;99.90;;;;;;4995039;28;20000;-71
2023/07/13 06:04:14;;;;;;;;;;;19.60;99.90;;;;;;5007457;28;19929;-70
2023/07/13 06:06:39;;;;;;;;;;;19.70;99.90;;;;;;5002243;28;19951;-70
2023/07/13 06:09:05;;;;;;;;;;;19.60;99.90;;;;;;5006751;28;21668;-70
2023/07/13 06:11:31;;;;;;;;;;;19.60;99.90;;;;;;5001646;28;20039;-70
2023/07/13 06:13:57;;;;;;;;;;;19.60;99.90;;;;;;4990581;28;20376;-72
2023/07/13 06:16:22;;;;;;;;;;;19.60;99.90;;;;;;5002530;28;19942;-69
2023/07/13 06:18:48;;;;;;;;;;;19.60;99.90;;;;;;5005033;28;19929;-70
2023/07/13 06:21:15;;;;;;;;;;;19.60;99.90;;;;;;5003067;28;19943;-71
2023/07/13 06:23:40;;;;;;;;;;;19.60;99.90;;;;;;5001230;28;20495;-69
2023/07/13 06:26:06;;;;;;;;;;;19.60;99.90;;;;;;5002294;28;19957;-71
2023/07/13 06:28:32;;;;;;;;;;;19.60;99.90;;;;;;4993853;28;19989;-71
2023/07/13 06:30:58;;;;;;;;;;;19.60;99.90;;;;;;5000083;28;19938;-69
2023/07/13 06:33:24;;;;;;;;;;;19.60;99.90;;;;;;4999798;28;20006;-72
2023/07/13 06:35:50;;;;;;;;;;;19.70;99.90;;;;;;5000580;28;19927;-74
2023/07/13 06:38:15;;;;;;;;;;;19.80;99.90;;;;;;5004275;28;20040;-75
2023/07/13 06:40:41;;;;;;;;;;;19.90;99.90;;;;;;5000884;28;20035;-72
2023/07/13 06:43:06;;;;;;;;;;;20.00;99.90;;;;;;5004719;28;19928;-72
2023/07/13 06:45:39;;;;;;;;;;;20.00;99.90;;;;;;5004662;28;20001;-71
2023/07/13 06:48:05;;;;;;;;;;;20.00;99.90;;;;;;5005583;28;20405;-70
2023/07/13 06:50:31;;;;;;;;;;;19.90;99.90;;;;;;5004195;28;19974;-69
2023/07/13 06:52:56;;;;;;;;;;;19.90;99.90;;;;;;5001939;28;20307;-68
2023/07/13 06:55:21;;;;;;;;;;;20.00;99.90;;;;;;4992820;28;22958;-69
2023/07/13 06:57:47;;;;;;;;;;;19.90;99.90;;;;;;5000771;28;19929;-69
2023/07/13 07:00:13;;;;;;;;;;;19.90;99.90;;;;;;4992038;28;20131;-69
2023/07/13 07:02:38;;;;;;;;;;;19.90;99.90;;;;;;4997647;28;19936;-68
2023/07/13 07:05:04;;;;;;;;;;;20.00;99.90;;;;;;5006119;28;19992;-68
2023/07/13 07:07:29;;;;;;;;;;;20.10;99.90;;;;;;5003944;28;19931;-69
2023/07/13 07:09:55;;;;;;;;;;;20.20;99.90;;;;;;4991965;28;19963;-72
2023/07/13 07:12:21;;;;;;;;;;;20.30;99.90;;;;;;4999634;28;19943;-71
2023/07/13 07:14:46;;;;;;;;;;;20.50;99.90;;;;;;5005571;28;19971;-73
2023/07/13 07:17:12;;;;;;;;;;;20.80;99.90;;;;;;5001352;28;20578;-74
2023/07/13 07:19:38;;;;;;;;;;;20.80;99.90;;;;;;4997897;28;19932;-73
2023/07/13 07:22:03;;;;;;;;;;;20.90;99.90;;;;;;4998579;28;19938;-73
2023/07/13 07:24:29;;;;;;;;;;;21.00;99.90;;;;;;4999913;28;20318;-73
2023/07/13 07:26:54;;;;;;;;;;;21.20;99.90;;;;;;4994377;28;20335;-75
2023/07/13 07:29:20;;;;;;;;;;;21.40;99.90;;;;;;4995801;28;19943;-70
2023/07/13 07:31:46;;;;;;;;;;;21.50;99.90;;;;;;4994310;28;20569;-69
2023/07/13 07:34:11;;;;;;;;;;;21.60;99.90;;;;;;4983979;28;19948;-69
2023/07/13 07:36:37;;;;;;;;;;;21.80;99.90;;;;;;4999444;28;19932;-71
2023/07/13 07:39:02;;;;;;;;;;;22.10;99.90;;;;;;5001177;28;19934;-71
2023/07/13 07:41:28;;;;;;;;;;;22.30;99.90;;;;;;4994734;28;19929;-68
2023/07/13 07:43:54;;;;;;;;;;;22.40;99.90;;;;;;5000173;28;20277;-68
2023/07/13 07:46:19;;;;;;;;;;;22.60;99.90;;;;;;5003539;28;19971;-69
2023/07/13 07:48:45;;;;;;;;;;;22.70;99.90;;;;;;4998368;28;20029;-69
2023/07/13 07:51:10;;;;;;;;;;;22.80;99.90;;;;;;5002629;28;20312;-68
2023/07/13 07:53:36;;;;;;;;;;;23.00;99.90;;;;;;5003247;28;19928;-68
2023/07/13 07:56:01;;;;;;;;;;;23.00;99.90;;;;;;4999876;28;19940;-69
2023/07/13 07:58:27;;;;;;;;;;;23.00;99.90;;;;;;5008746;28;19928;-68
2023/07/13 08:00:52;;;;;;;;;;;23.10;99.90;;;;;;5007578;28;22256;-69
2023/07/13 08:03:18;;;;;;;;;;;23.20;99.90;;;;;;5015385;28;20419;-69
2023/07/13 08:05:43;;;;;;;;;;;23.30;99.90;;;;;;5007657;28;20054;-69
2023/07/13 08:08:09;;;;;;;;;;;23.40;99.90;;;;;;5006884;28;19925;-69
2023/07/13 08:10:35;;;;;;;;;;;23.50;99.90;;;;;;5012130;28;19927;-68
2023/07/13 08:13:02;;;;;;;;;;;23.60;99.90;;;;;;5014288;28;19929;-68
2023/07/13 08:15:28;;;;;;;;;;;23.70;99.90;;;;;;5007622;28;19986;-69
2023/07/13 08:17:53;;;;;;;;;;;23.70;99.90;;;;;;5010013;28;20306;-70
2023/07/13 08:20:19;;;;;;;;;;;23.70;99.90;;;;;;5009216;28;19938;-69
2023/07/13 08:22:44;;;;;;;;;;;23.80;99.90;;;;;;5013259;28;19974;-69
2023/07/13 08:25:10;;;;;;;;;;;23.90;99.90;;;;;;5011505;28;20438;-69
2023/07/13 08:27:35;;;;;;;;;;;23.90;99.90;;;;;;5013621;28;19936;-69
2023/07/13 08:30:01;;;;;;;;;;;24.00;99.90;;;;;;4996217;28;20408;-69
2023/07/13 08:32:26;;;;;;;;;;;24.00;99.90;;;;;;5007509;28;20007;-69
2023/07/13 08:34:52;;;;;;;;;;;24.10;99.90;;;;;;5000501;28;20028;-68
2023/07/13 08:37:18;;;;;;;;;;;24.10;99.90;;;;;;5007991;28;20022;-68
2023/07/13 08:39:43;;;;;;;;;;;24.20;99.90;;;;;;5009766;28;19933;-69
2023/07/13 08:42:20;;;;;;;;;;;24.20;99.90;;;;;;5007391;28;19932;-68
2023/07/13 08:44:48;;;;;;;;;;;24.30;99.90;;;;;;5013831;28;19950;-69
2023/07/13 08:47:15;;;;;;;;;;;24.50;99.90;;;;;;5017674;28;19961;-69
2023/07/13 08:49:41;;;;;;;;;;;24.60;99.90;;;;;;4999567;28;20419;-69
2023/07/13 08:52:17;;;;;;;;;;;24.70;99.90;;;;;;5011048;28;20452;-69
2023/07/13 08:54:49;;;;;;;;;;;24.90;99.90;;;;;;5008085;28;20038;-69
2023/07/13 08:57:19;;;;;;;;;;;24.90;99.90;;;;;;5002812;28;19972;-69
2023/07/13 08:59:45;;;;;;;;;;;25.00;99.90;;;;;;5005826;28;19931;-69
2023/07/13 09:02:13;;;;;;;;;;;25.20;99.90;;;;;;5003018;28;19977;-70
2023/07/13 09:04:42;;;;;;;;;;;25.30;99.90;;;;;;5002004;28;20410;-69
2023/07/13 09:07:13;;;;;;;;;;;25.40;99.90;;;;;;4992239;28;19926;-69
2023/07/13 09:09:57;;;;;;;;;;;25.40;99.90;;;;;;5007140;28;19935;-69
2023/07/13 09:12:39;;;;;;;;;;;25.50;99.90;;;;;;5005555;28;19942;-68
2023/07/13 09:15:14;;;;;;;;;;;25.60;99.90;;;;;;4991171;28;20655;-68
2023/07/13 09:17:41;;;;;;;;;;;25.50;99.90;;;;;;4993121;28;20001;-69
2023/07/13 09:20:26;;;;;;;;;;;25.50;99.90;;;;;;4993994;28;19988;-71
2023/07/13 09:22:52;;;;;;;;;;;25.50;99.90;;;;;;4997365;28;19938;-70
2023/07/13 09:25:29;;;;;;;;;;;25.50;99.90;;;;;;5005274;28;19952;-75
2023/07/13 09:27:56;;;;;;;;;;;25.40;99.90;;;;;;4999980;28;20028;-73
2023/07/13 09:30:45;;;;;;;;;;;25.30;99.90;;;;;;4998783;28;21201;-73
2023/07/13 09:33:11;;;;;;;;;;;25.40;99.90;;;;;;4991706;28;19943;-73
2023/07/13 09:35:36;;;;;;;;;;;25.40;99.90;;;;;;4999837;28;20383;-72
2023/07/13 09:38:10;;;;;;;;;;;25.30;99.90;;;;;;4997918;28;19945;-69
2023/07/13 09:40:54;;;;;;;;;;;25.10;99.90;;;;;;5008147;28;19934;-71
2023/07/13 09:43:20;;;;;;;;;;;25.00;99.90;;;;;;5003253;28;19924;-69
2023/07/13 09:45:47;;;;;;;;;;;25.10;99.90;;;;;;4997048;28;20044;-70
2023/07/13 09:48:14;;;;;;;;;;;25.10;99.90;;;;;;4999517;28;20713;-69
2023/07/13 09:50:39;;;;;;;;;;;25.10;99.90;;;;;;5001757;28;20574;-67
2023/07/13 09:53:11;;;;;;;;;;;25.10;99.90;;;;;;5007662;28;19987;-68
2023/07/13 09:55:38;;;;;;;;;;;25.20;99.90;;;;;;5017070;28;20026;-72
2023/07/13 09:58:12;;;;;;;;;;;25.10;99.90;;;;;;5009643;28;19937;-68
2023/07/13 10:00:39;;;;;;;;;;;25.10;99.90;;;;;;4991342;28;20450;-68
2023/07/13 10:03:14;;;;;;;;;;;25.00;99.90;;;;;;5002335;28;19937;-68
2023/07/13 10:05:40;;;;;;;;;;;25.00;99.90;;;;;;5006520;28;19956;-67
2023/07/13 10:08:07;;;;;;;;;;;25.10;99.90;;;;;;5005994;28;19944;-67
2023/07/13 10:10:33;;;;;;;;;;;25.40;99.90;;;;;;5006360;28;19930;-67
2023/07/13 10:12:58;;;;;;;;;;;25.30;99.90;;;;;;5003551;28;19939;-75
2023/07/13 10:15:25;;;;;;;;;;;25.20;99.90;;;;;;5008630;28;20026;-75
2023/07/13 10:17:51;;;;;;;;;;;25.10;99.90;;;;;;5005393;28;21064;-69
2023/07/13 10:20:17;;;;;;;;;;;25.20;99.90;;;;;;4999624;28;20649;-67
2023/07/13 10:22:50;;;;;;;;;;;25.20;99.90;;;;;;5005071;28;19924;-69
2023/07/13 10:25:18;;;;;;;;;;;25.10;99.90;;;;;;5004008;28;19973;-67
2023/07/13 10:27:44;;;;;;;;;;;25.20;99.90;;;;;;5005882;28;20373;-66
2023/07/13 10:30:14;;;;;;;;;;;25.30;99.90;;;;;;5006101;28;20051;-71
2023/07/13 10:32:40;;;;;;;;;;;25.40;99.90;;;;;;5008609;28;19930;-70
2023/07/13 10:35:09;;;;;;;;;;;25.40;99.90;;;;;;5000720;28;19947;-70
2023/07/13 10:38:01;;;;;;;;;;;25.50;99.90;;;;;;5000991;28;20319;-66
2023/07/13 10:40:53;;;;;;;;;;;25.50;99.90;;;;;;4978831;28;20012;-66
2023/07/13 10:43:22;;;;;;;;;;;25.70;99.90;;;;;;4999504;28;19986;-66
2023/07/13 10:45:51;;;;;;;;;;;25.70;99.90;;;;;;5004311;28;19953;-68
2023/07/13 10:48:17;;;;;;;;;;;25.70;99.90;;;;;;5006881;28;19960;-67
2023/07/13 10:50:44;;;;;;;;;;;25.70;99.90;;;;;;5006948;28;19935;-67
2023/07/13 10:53:21;;;;;;;;;;;25.70;99.90;;;;;;5006547;28;19934;-67
2023/07/13 10:55:53;;;;;;;;;;;25.70;99.90;;;;;;5006847;28;20036;-67
2023/07/13 10:58:27;;;;;;;;;;;25.90;99.90;;;;;;5005762;28;19928;-65
2023/07/13 11:00:58;;;;;;;;;;;25.90;99.90;;;;;;5007774;28;20310;-66
2023/07/13 11:03:27;;;;;;;;;;;25.90;99.90;;;;;;5008579;28;20498;-69
2023/07/13 11:06:05;;;;;;;;;;;25.90;99.90;;;;;;5008430;28;19987;-66
2023/07/13 11:08:31;;;;;;;;;;;25.90;99.90;;;;;;5007144;28;19940;-66
2023/07/13 11:10:56;;;;;;;;;;;26.00;99.90;;;;;;5008098;28;19945;-69
2023/07/13 11:13:54;;;;;;;;;;;26.10;99.90;;;;;;5006802;28;19943;-69
2023/07/13 11:16:20;;;;;;;;;;;26.10;99.90;;;;;;4997488;28;19932;-68
2023/07/13 11:18:49;;;;;;;;;;;26.00;99.90;;;;;;4986642;28;20028;-70
2023/07/13 11:21:19;;;;;;;;;;;26.10;99.90;;;;;;4978689;28;19930;-69
2023/07/13 11:23:51;;;;;;;;;;;26.20;99.90;;;;;;5004790;28;20424;-68
2023/07/13 11:26:46;;;;;;;;;;;26.10;99.90;;;;;;4998847;28;20055;-68
2023/07/13 11:29:15;;;;;;;;;;;26.10;99.90;;;;;;4981970;28;20179;-68
2023/07/13 11:31:43;;;;;;;;;;;26.40;99.90;;;;;;4995144;28;19932;-69
2023/07/13 11:34:13;;;;;;;;;;;26.40;99.90;;;;;;4996717;28;20562;-68
2023/07/13 11:36:42;;;;;;;;;;;26.60;99.90;;;;;;4996634;28;19932;-69
2023/07/13 11:39:19;;;;;;;;;;;26.60;99.90;;;;;;4997458;28;19949;-69
2023/07/13 11:42:04;;;;;;;;;;;26.60;99.90;;;;;;5004981;28;20600;-68
2023/07/13 11:44:30;;;;;;;;;;;26.40;99.90;;;;;;5000253;28;19939;-68
2023/07/13 11:46:56;;;;;;;;;;;26.20;99.90;;;;;;5008700;28;19958;-67
2023/07/13 11:49:24;;;;;;;;;;;26.10;99.90;;;;;;4997253;28;20561;-67
2023/07/13 11:51:53;;;;;;;;;;;26.10;99.90;;;;;;5002064;28;19928;-74
2023/07/13 11:54:33;;;;;;;;;;;26.00;99.90;;;;;;4996382;28;19930;-68
2023/07/13 11:57:01;;;;;;;;;;;25.90;99.90;;;;;;5007991;28;19941;-67
2023/07/13 11:59:28;;;;;;;;;;;26.00;99.90;;;;;;5004020;28;19933;-68
2023/07/13 12:01:55;;;;;;;;;;;26.10;99.90;;;;;;4999405;28;19946;-63
2023/07/13 12:04:28;;;;;;;;;;;26.10;99.90;;;;;;5000336;28;20416;-71
2023/07/13 12:07:02;;;;;;;;;;;26.20;99.90;;;;;;5003904;28;20410;-64
2023/07/13 12:09:28;;;;;;;;;;;26.10;99.90;;;;;;5005889;28;20240;-67
2023/07/13 12:11:54;;;;;;;;;;;26.10;99.90;;;;;;5005026;28;19935;-67
2023/07/13 12:14:20;;;;;;;;;;;26.20;99.90;;;;;;5006889;28;20022;-69
2023/07/13 12:16:46;;;;;;;;;;;26.20;99.90;;;;;;4999520;28;21186;-69
2023/07/13 12:19:18;;;;;;;;;;;26.20;99.90;;;;;;4999512;28;20314;-67
2023/07/13 12:21:44;;;;;;;;;;;26.20;99.90;;;;;;4983404;28;20065;-67
2023/07/13 12:24:17;;;;;;;;;;;26.30;99.90;;;;;;5003234;28;20695;-67
2023/07/13 12:26:43;;;;;;;;;;;26.40;99.90;;;;;;4985110;28;19948;-68
2023/07/13 12:29:15;;;;;;;;;;;26.50;99.90;;;;;;4997341;28;20166;-68
2023/07/13 12:31:43;;;;;;;;;;;26.70;99.90;;;;;;5003180;28;19940;-68
2023/07/13 12:34:11;;;;;;;;;;;26.80;99.90;;;;;;5007164;28;20255;-68
2023/07/13 12:36:38;;;;;;;;;;;26.90;99.90;;;;;;5012508;28;19936;-67
2023/07/13 12:39:10;;;;;;;;;;;26.90;99.90;;;;;;5009578;28;19922;-67
2023/07/13 12:41:35;;;;;;;;;;;26.90;99.90;;;;;;5003922;28;19939;-65
2023/07/13 12:44:01;;;;;;;;;;;26.90;99.90;;;;;;5011688;28;19927;-65
2023/07/13 12:46:28;;;;;;;;;;;26.80;99.90;;;;;;5011014;28;19959;-65
2023/07/13 12:48:54;;;;;;;;;;;26.90;99.90;;;;;;5013174;28;20266;-65
2023/07/13 12:51:24;;;;;;;;;;;27.00;99.90;;;;;;4990815;28;19934;-65
2023/07/13 12:53:54;;;;;;;;;;;27.20;99.90;;;;;;5006837;28;19929;-65
2023/07/13 12:56:24;;;;;;;;;;;27.30;99.90;;;;;;5008653;28;19971;-67
2023/07/13 12:58:54;;;;;;;;;;;27.30;99.90;;;;;;5013775;28;20390;-67
2023/07/13 13:01:21;;;;;;;;;;;27.30;99.90;;;;;;4999524;28;19933;-68
2023/07/13 13:03:49;;;;;;;;;;;27.00;99.90;;;;;;5006919;28;19981;-70
2023/07/13 13:06:15;;;;;;;;;;;27.00;99.90;;;;;;5000928;28;22179;-70
2023/07/13 13:08:42;;;;;;;;;;;27.10;99.90;;;;;;5007210;28;19934;-69
2023/07/13 13:11:08;;;;;;;;;;;27.20;99.90;;;;;;5007890;28;19932;-69
2023/07/13 13:13:34;;;;;;;;;;;27.20;99.90;;;;;;5007275;28;20401;-68
2023/07/13 13:16:14;;;;;;;;;;;27.20;99.90;;;;;;5003236;28;19935;-67
2023/07/13 13:18:39;;;;;;;;;;;27.10;99.90;;;;;;5006626;28;20330;-67
2023/07/13 13:21:05;;;;;;;;;;;27.20;99.90;;;;;;5004933;28;19932;-68
2023/07/13 13:23:31;;;;;;;;;;;27.20;99.90;;;;;;4999948;28;20235;-67
2023/07/13 13:25:57;;;;;;;;;;;27.30;99.90;;;;;;5003359;28;19953;-67
2023/07/13 13:28:22;;;;;;;;;;;27.40;99.90;;;;;;4990542;28;20152;-67
2023/07/13 13:30:50;;;;;;;;;;;27.50;99.90;;;;;;5000954;28;19981;-67
2023/07/13 13:33:17;;;;;;;;;;;27.40;99.90;;;;;;4996803;28;20004;-67
2023/07/13 13:35:43;;;;;;;;;;;27.50;99.90;;;;;;4985929;28;19925;-67
2023/07/13 13:38:15;;;;;;;;;;;27.50;99.90;;;;;;4996352;28;19930;-68
2023/07/13 13:40:42;;;;;;;;;;;27.40;99.90;;;;;;5005539;28;19929;-68
2023/07/13 13:43:16;;;;;;;;;;;27.30;99.90;;;;;;4997964;28;20043;-73
2023/07/13 13:45:42;;;;;;;;;;;27.30;99.90;;;;;;5003719;28;20069;-67
2023/07/13 13:48:15;;;;;;;;;;;27.30;99.90;;;;;;5004426;28;20314;-65
2023/07/13 13:50:41;;;;;;;;;;;27.40;99.90;;;;;;4996633;28;19933;-66
2023/07/13 13:53:09;;;;;;;;;;;27.40;99.90;;;;;;4999670;28;20446;-65
2023/07/13 13:55:35;;;;;;;;;;;27.40;99.90;;;;;;4993522;28;19933;-67
2023/07/13 13:58:00;;;;;;;;;;;27.50;99.90;;;;;;5001151;28;19963;-67
2023/07/13 14:00:26;;;;;;;;;;;27.60;99.90;;;;;;4998894;28;19937;-67
2023/07/13 14:02:52;;;;;;;;;;;27.60;99.90;;;;;;4966343;28;19927;-69
2023/07/13 14:05:21;;;;;;;;;;;27.60;99.90;;;;;;4979038;28;20223;-68
2023/07/13 14:07:47;;;;;;;;;;;27.70;99.90;;;;;;4993622;28;19943;-67
2023/07/13 14:10:17;;;;;;;;;;;27.60;99.90;;;;;;5004625;28;19927;-66
2023/07/13 14:12:44;;;;;;;;;;;27.60;99.90;;;;;;4991101;28;19930;-66
2023/07/13 14:15:23;;;;;;;;;;;27.70;99.90;;;;;;4997881;28;19936;-66
2023/07/13 14:17:52;;;;;;;;;;;27.70;99.90;;;;;;4996001;28;19931;-66